createdAt,value
2023-07-18T00:00:19.545Z,101009.38
2023-07-18T00:02:47.569Z,101006.81
2023-07-18T00:05:15.779Z,101014.22
2023-07-18T00:07:43.400Z,101010.19
2023-07-18T00:10:11.141Z,101009.16
2023-07-18T00:12:38.796Z,101001.28
2023-07-18T00:15:06.479Z,100994.53
2023-07-18T00:17:35.001Z,101000.47
2023-07-18T00:20:02.925Z,100994.97
2023-07-18T00:22:30.647Z,100998.97
2023-07-18T00:24:58.288Z,101007.44
2023-07-18T00:27:26.086Z,101006.38
2023-07-18T00:29:53.733Z,101005.13
2023-07-18T00:32:21.958Z,101018.22
2023-07-18T00:34:50.892Z,101011.88
2023-07-18T00:37:18.855Z,101010.63
2023-07-18T00:39:46.612Z,101007.88
2023-07-18T00:42:14.259Z,101005.31
2023-07-18T00:44:41.909Z,101004.47
2023-07-18T00:47:09.675Z,101000.25
2023-07-18T00:49:37.353Z,100998.56
2023-07-18T00:52:05.744Z,100999.41
2023-07-18T00:54:33.429Z,100997.94
2023-07-18T00:57:01.112Z,100987.78
2023-07-18T00:59:29.599Z,100997.94
2023-07-18T01:01:57.568Z,100994.53
2023-07-18T01:04:25.468Z,100986.91
2023-07-18T01:06:54.039Z,100991.56
2023-07-18T01:09:21.741Z,100999.59
2023-07-18T01:11:49.493Z,100999.38
2023-07-18T01:14:17.150Z,101000.25
2023-07-18T01:16:44.812Z,101006.34
2023-07-18T01:19:12.629Z,101000.88
2023-07-18T01:21:40.240Z,100993.47
2023-07-18T01:24:07.958Z,100998.97
2023-07-18T01:26:35.849Z,100996.22
2023-07-18T01:29:04.120Z,101004.44
2023-07-18T01:31:32.082Z,100997.91
2023-07-18T01:33:59.774Z,100991.34
2023-07-18T01:36:29.976Z,100997.91
2023-07-18T01:38:57.899Z,101002.13
2023-07-18T01:41:25.575Z,100995.38
2023-07-18T01:43:53.407Z,100988.81
2023-07-18T01:46:21.229Z,100985.22
2023-07-18T01:48:48.881Z,100998.31
2023-07-18T01:51:17.041Z,100995.38
2023-07-18T01:53:45.013Z,100996.22
2023-07-18T01:56:12.700Z,100993.47
2023-07-18T01:58:40.384Z,100996.44
2023-07-18T02:01:08.107Z,101001.06
2023-07-18T02:03:36.929Z,101003.81
2023-07-18T02:06:05.520Z,101003.19
2023-07-18T02:08:33.175Z,101012.47
2023-07-18T02:11:00.882Z,101006.56
2023-07-18T02:13:30.038Z,101007.63
2023-07-18T02:15:57.777Z,100997.69
2023-07-18T02:18:25.418Z,100995.97
2023-07-18T02:20:53.070Z,101008.06
2023-07-18T02:23:20.719Z,101006.56
2023-07-18T02:25:48.374Z,101006.75
2023-07-18T02:28:16.186Z,101005.50
2023-07-18T02:30:44.317Z,101004.22
2023-07-18T02:33:12.081Z,101009.31
2023-07-18T02:35:39.836Z,101015.22
2023-07-18T02:38:06.497Z,101012.03
2023-07-18T02:40:34.252Z,101014.16
2023-07-18T02:43:01.960Z,101013.31
2023-07-18T02:45:29.614Z,101013.75
2023-07-18T02:47:57.285Z,101015.44
2023-07-18T02:50:24.953Z,101028.75
2023-07-18T02:52:55.533Z,101027.91
2023-07-18T02:55:23.210Z,101024.97
2023-07-18T02:57:51.266Z,101027.06
2023-07-18T03:00:26.930Z,101028.53
2023-07-18T03:02:54.852Z,101028.75
2023-07-18T03:05:23.256Z,101031.28
2023-07-18T03:07:52.104Z,101033.38
2023-07-18T03:10:19.746Z,101040.16
2023-07-18T03:12:47.600Z,101029.59
2023-07-18T03:15:17.454Z,101037.66
2023-07-18T03:17:45.401Z,101027.91
2023-07-18T03:20:18.008Z,101030.47
2023-07-18T03:22:45.779Z,101013.97
2023-07-18T03:25:13.463Z,101009.31
2023-07-18T03:27:41.223Z,101017.13
2023-07-18T03:30:11.733Z,101019.47
2023-07-18T03:32:39.811Z,101029.19
2023-07-18T03:35:07.736Z,101019.03
2023-07-18T03:37:36.566Z,101027.50
2023-07-18T03:40:04.806Z,101024.09
2023-07-18T03:42:32.544Z,101026.00
2023-07-18T03:45:00.415Z,101032.97
2023-07-18T03:47:28.213Z,101027.06
2023-07-18T03:49:55.906Z,101023.69
2023-07-18T03:52:23.575Z,101028.56
2023-07-18T03:54:51.236Z,101027.50
2023-07-18T03:57:18.945Z,101022.22
2023-07-18T03:59:46.761Z,101020.72
2023-07-18T04:02:15.662Z,101026.88
2023-07-18T04:04:43.547Z,101020.31
2023-07-18T04:07:11.403Z,101010.59
2023-07-18T04:09:39.018Z,101014.00
2023-07-18T04:12:06.666Z,101017.78
2023-07-18T04:14:36.521Z,101011.00
2023-07-18T04:17:04.192Z,101020.75
2023-07-18T04:19:32.129Z,101030.28
2023-07-18T04:22:00.032Z,101022.88
2023-07-18T04:24:27.688Z,101022.03
2023-07-18T04:26:55.431Z,101024.16
2023-07-18T04:29:23.354Z,101025.00
2023-07-18T04:31:51.062Z,101021.19
2023-07-18T04:34:20.083Z,101022.88
2023-07-18T04:36:47.828Z,101020.31
2023-07-18T04:39:15.765Z,101025.81
2023-07-18T04:41:54.594Z,101019.28
2023-07-18T04:44:23.691Z,101021.63
2023-07-18T04:46:51.478Z,101024.38
2023-07-18T04:49:19.372Z,101029.88
2023-07-18T04:51:47.213Z,101029.44
2023-07-18T04:54:14.897Z,101024.38
2023-07-18T04:56:42.646Z,101018.66
2023-07-18T04:59:10.261Z,101024.16
2023-07-18T05:01:38.619Z,101020.31
2023-07-18T05:04:06.459Z,101029.88
2023-07-18T05:06:34.105Z,101038.13
2023-07-18T05:09:01.768Z,101033.03
2023-07-18T05:11:30.141Z,101033.47
2023-07-18T05:13:59.018Z,101033.25
2023-07-18T05:16:26.736Z,101032.19
2023-07-18T05:18:54.974Z,101043.84
2023-07-18T05:21:23.026Z,101036.66
2023-07-18T05:23:50.952Z,101038.53
2023-07-18T05:26:18.572Z,101035.59
2023-07-18T05:28:46.207Z,101027.97
2023-07-18T05:31:14.369Z,101032.66
2023-07-18T05:33:42.754Z,101037.72
2023-07-18T05:36:10.407Z,101032.00
2023-07-18T05:38:38.057Z,101028.19
2023-07-18T05:41:05.971Z,101025.44
2023-07-18T05:43:33.595Z,101027.78
2023-07-18T05:46:01.247Z,101018.69
2023-07-18T05:48:29.769Z,101018.69
2023-07-18T05:50:57.710Z,101021.03
2023-07-18T05:53:25.833Z,101018.28
2023-07-18T05:55:53.584Z,101026.13
2023-07-18T05:58:21.342Z,101027.78
2023-07-18T06:00:49.175Z,101032.03
2023-07-18T06:03:17.092Z,101028.88
2023-07-18T06:05:44.848Z,101031.41
2023-07-18T06:08:12.477Z,101026.53
2023-07-18T06:10:40.130Z,101027.84
2023-07-18T06:13:07.784Z,101027.16
2023-07-18T06:15:35.477Z,101032.47
2023-07-18T06:18:03.188Z,101029.72
2023-07-18T06:20:30.845Z,101022.72
2023-07-18T06:22:58.599Z,101019.53
2023-07-18T06:25:26.279Z,101026.34
2023-07-18T06:27:55.186Z,101032.88
2023-07-18T06:30:22.852Z,101033.97
2023-07-18T06:32:50.994Z,101023.34
2023-07-18T06:35:23.754Z,101027.19
2023-07-18T06:37:51.802Z,101031.19
2023-07-18T06:40:19.478Z,101027.16
2023-07-18T06:42:47.153Z,101028.84
2023-07-18T06:45:15.768Z,101023.75
2023-07-18T06:47:44.869Z,101031.38
2023-07-18T06:50:12.995Z,101023.75
2023-07-18T06:52:40.671Z,101022.50
2023-07-18T06:55:11.604Z,101025.25
2023-07-18T06:57:41.792Z,101034.34
2023-07-18T07:00:12.822Z,101025.69
2023-07-18T07:02:40.673Z,101024.16
2023-07-18T07:05:09.427Z,101019.50
2023-07-18T07:07:37.094Z,101016.59
2023-07-18T07:10:09.988Z,101023.78
2023-07-18T07:12:38.117Z,101019.13
2023-07-18T07:15:05.932Z,101007.03
2023-07-18T07:17:33.666Z,101002.59
2023-07-18T07:20:01.921Z,101000.91
2023-07-18T07:22:29.634Z,100987.56
2023-07-18T07:24:57.474Z,100997.09
2023-07-18T07:27:25.182Z,101005.72
2023-07-18T07:29:53.643Z,100995.38
2023-07-18T07:32:21.512Z,101001.09
2023-07-18T07:34:49.478Z,100994.97
2023-07-18T07:37:17.284Z,100998.75
2023-07-18T07:39:45.322Z,100992.41
2023-07-18T07:42:13.914Z,100991.56
2023-07-18T07:44:41.691Z,100988.59
2023-07-18T07:47:09.296Z,100983.94
2023-07-18T07:49:37.122Z,100983.75
2023-07-18T07:52:04.817Z,100987.78
2023-07-18T07:54:32.520Z,100982.66
2023-07-18T07:57:00.168Z,100977.19
2023-07-18T07:59:27.845Z,100978.66
2023-07-18T08:01:55.544Z,100969.97
2023-07-18T08:04:23.450Z,100972.31
2023-07-18T08:06:51.189Z,100963.66
2023-07-18T08:09:18.879Z,100970.22
2023-07-18T08:11:46.493Z,100959.84
2023-07-18T08:14:14.146Z,100957.31
2023-07-18T08:16:41.903Z,100969.38
2023-07-18T08:19:12.775Z,100957.31
2023-07-18T08:21:40.433Z,100952.25
2023-07-18T08:24:08.049Z,100952.66
2023-07-18T08:26:35.726Z,100948.22
2023-07-18T08:29:03.374Z,100936.13
2023-07-18T08:31:31.020Z,100938.69
2023-07-18T08:33:58.721Z,100937.84
2023-07-18T08:36:26.844Z,100932.34
2023-07-18T08:38:54.469Z,100934.25
2023-07-18T08:41:22.275Z,100931.50
2023-07-18T08:43:50.205Z,100922.16
2023-07-18T08:46:17.919Z,100919.41
2023-07-18T08:48:45.589Z,100920.25
2023-07-18T08:51:13.237Z,100919.63
2023-07-18T08:53:40.887Z,100916.66
2023-07-18T08:56:09.527Z,100907.56
2023-07-18T08:58:38.079Z,100901.44
2023-07-18T09:01:05.744Z,100913.28
2023-07-18T09:03:33.449Z,100911.38
2023-07-18T09:06:01.087Z,100903.97
2023-07-18T09:08:28.746Z,100908.59
2023-07-18T09:10:56.433Z,100910.53
2023-07-18T09:13:24.072Z,100903.09
2023-07-18T09:15:51.747Z,100894.84
2023-07-18T09:18:19.349Z,100895.72
2023-07-18T09:20:46.991Z,100890.41
2023-07-18T09:23:15.134Z,100889.16
2023-07-18T09:25:42.802Z,100889.34
2023-07-18T09:28:10.465Z,100888.50
2023-07-18T09:30:39.005Z,100888.31
2023-07-18T09:33:06.996Z,100880.88
2023-07-18T09:35:34.700Z,100879.22
2023-07-18T09:38:02.473Z,100882.81
2023-07-18T09:40:30.130Z,100881.09
2023-07-18T09:42:57.902Z,100878.34
2023-07-18T09:45:25.544Z,100879.41
2023-07-18T09:47:53.229Z,100872.00
2023-07-18T09:50:20.906Z,100861.81
2023-07-18T09:52:50.577Z,100861.00
2023-07-18T09:55:18.326Z,100856.31
2023-07-18T09:57:46.063Z,100863.53
2023-07-18T10:00:13.714Z,100850.63
2023-07-18T10:02:41.646Z,100853.56
2023-07-18T10:05:10.943Z,100855.28
2023-07-18T10:07:38.590Z,100846.81
2023-07-18T10:10:08.446Z,100842.34
2023-07-18T10:12:36.046Z,100839.16
2023-07-18T10:15:05.115Z,100842.34
2023-07-18T10:17:32.884Z,100838.97
2023-07-18T10:20:00.606Z,100831.53
2023-07-18T10:22:28.380Z,100821.81
2023-07-18T10:24:56.096Z,100821.38
2023-07-18T10:27:25.579Z,100814.81
2023-07-18T10:29:53.183Z,100814.81
2023-07-18T10:32:20.943Z,100806.13
2023-07-18T10:34:49.066Z,100805.69
2023-07-18T10:37:16.739Z,100800.63
2023-07-18T10:39:44.880Z,100796.41
2023-07-18T10:42:15.523Z,100787.50
2023-07-18T10:44:43.309Z,100782.41
2023-07-18T10:47:11.086Z,100775.22
2023-07-18T10:49:39.132Z,100776.09
2023-07-18T10:52:06.729Z,100772.28
2023-07-18T10:54:34.376Z,100766.78
2023-07-18T10:57:02.099Z,100768.44
2023-07-18T10:59:29.740Z,100764.00
2023-07-18T11:01:57.650Z,100764.84
2023-07-18T11:04:25.403Z,100754.47
2023-07-18T11:06:53.238Z,100754.22
2023-07-18T11:09:22.514Z,100749.56
2023-07-18T11:11:50.397Z,100754.47
2023-07-18T11:14:18.065Z,100739.63
2023-07-18T11:16:45.699Z,100739.00
2023-07-18T11:19:14.433Z,100744.75
2023-07-18T11:21:42.049Z,100746.84
2023-07-18T11:24:09.805Z,100736.69
2023-07-18T11:26:37.591Z,100745.50
2023-07-18T11:29:05.223Z,100751.25
2023-07-18T11:34:03.567Z,100751.53
2023-07-18T11:36:31.694Z,100752.53
2023-07-18T11:39:02.101Z,100751.91
2023-07-18T11:41:30.026Z,100750.44
2023-07-18T11:43:57.705Z,100736.88
2023-07-18T11:46:26.072Z,100741.75
2023-07-18T11:48:53.828Z,100738.16
2023-07-18T11:51:21.784Z,100740.50
2023-07-18T11:53:49.543Z,100740.50
2023-07-18T11:56:17.189Z,100728.22
2023-07-18T11:58:44.799Z,100732.00
2023-07-18T12:01:12.447Z,100728.25
2023-07-18T12:03:40.120Z,100712.09
2023-07-18T12:06:07.908Z,100712.28
2023-07-18T12:08:35.561Z,100698.97
2023-07-18T12:11:09.845Z,100696.84
2023-07-18T12:13:50.783Z,100703.63
2023-07-18T12:16:18.547Z,100701.09
2023-07-18T12:18:47.962Z,100703.47
2023-07-18T12:21:16.035Z,100705.13
2023-07-18T12:23:43.739Z,100709.78
2023-07-18T12:26:11.390Z,100714.47
2023-07-18T12:28:39.409Z,100704.72
2023-07-18T12:31:07.765Z,100702.41
2023-07-18T12:33:35.566Z,100678.72
2023-07-18T12:36:03.556Z,100679.53
2023-07-18T12:38:31.224Z,100686.34
2023-07-18T12:41:09.363Z,100690.16
2023-07-18T12:43:37.004Z,100699.88
2023-07-18T12:46:07.148Z,100700.09
2023-07-18T12:48:34.800Z,100685.50
2023-07-18T12:51:03.083Z,100691.19
2023-07-18T12:53:30.777Z,100682.09
2023-07-18T12:55:58.525Z,100678.53
2023-07-18T12:58:26.196Z,100674.94
2023-07-18T13:00:53.859Z,100659.47
2023-07-18T13:03:21.605Z,100657.59
2023-07-18T13:05:51.997Z,100653.75
2023-07-18T13:08:19.699Z,100657.59
2023-07-18T13:10:47.348Z,100660.34
2023-07-18T13:13:14.984Z,100667.72
2023-07-18T13:15:43.075Z,100660.34
2023-07-18T13:18:10.825Z,100650.38
2023-07-18T13:20:38.553Z,100655.88
2023-07-18T13:23:06.311Z,100659.47
2023-07-18T13:25:34.071Z,100649.53
2023-07-18T13:28:01.742Z,100631.94
2023-07-18T13:30:29.697Z,100624.56
2023-07-18T13:32:57.355Z,100617.34
2023-07-18T13:35:25.052Z,100615.44
2023-07-18T13:37:52.676Z,100611.84
2023-07-18T13:40:20.406Z,100595.34
2023-07-18T13:42:48.277Z,100577.16
2023-07-18T13:45:15.972Z,100574.16
2023-07-18T13:47:44.759Z,100573.31
2023-07-18T13:52:45.186Z,100576.06
2023-07-18T13:55:12.851Z,100588.78
2023-07-18T13:57:40.564Z,100582.22
2023-07-18T14:00:08.959Z,100582.22
2023-07-18T14:02:36.903Z,100573.31
2023-07-18T14:05:05.883Z,100562.31
2023-07-18T14:07:34.245Z,100546.06
2023-07-18T14:10:01.921Z,100536.72
2023-07-18T14:12:29.561Z,100540.53
2023-07-18T14:14:59.713Z,100544.13
2023-07-18T14:17:29.674Z,100540.75
2023-07-18T14:19:57.659Z,100538.25
2023-07-18T14:22:25.306Z,100539.09
2023-07-18T14:24:52.980Z,100516.22
2023-07-18T14:27:20.749Z,100529.13
2023-07-18T14:29:48.439Z,100519.19
2023-07-18T14:32:16.106Z,100520.88
2023-07-18T14:34:43.769Z,100521.94
2023-07-18T14:37:12.159Z,100520.03
2023-07-18T14:39:39.900Z,100510.72
2023-07-18T14:42:07.674Z,100509.88
2023-07-18T14:44:35.310Z,100511.16
2023-07-18T14:47:03.422Z,100512.88
2023-07-18T14:49:31.080Z,100510.56
2023-07-18T14:51:58.690Z,100506.94
2023-07-18T14:54:26.352Z,100500.84
2023-07-18T14:56:53.973Z,100492.59
2023-07-18T14:59:21.637Z,100497.03
2023-07-18T15:01:49.327Z,100495.34
2023-07-18T15:04:17.034Z,100494.47
2023-07-18T15:06:44.690Z,100491.72
2023-07-18T15:09:12.339Z,100494.91
2023-07-18T15:11:39.997Z,100492.97
2023-07-18T15:14:08.092Z,100504.38
2023-07-18T15:16:35.994Z,100501.03
2023-07-18T15:19:05.781Z,100503.97
2023-07-18T15:21:33.520Z,100493.66
2023-07-18T15:24:01.147Z,100498.94
2023-07-18T15:26:28.808Z,100482.81
2023-07-18T15:28:56.471Z,100482.53
2023-07-18T15:31:24.217Z,100482.94
2023-07-18T15:33:51.972Z,100490.31
2023-07-18T15:36:19.987Z,100492.03
2023-07-18T15:38:48.124Z,100486.56
2023-07-18T15:41:15.767Z,100470.13
2023-07-18T15:43:43.442Z,100476.00
2023-07-18T15:46:11.094Z,100467.38
2023-07-18T15:48:39.317Z,100463.78
2023-07-18T15:51:07.125Z,100463.56
2023-07-18T15:53:34.810Z,100471.81
2023-07-18T15:56:02.451Z,100466.91
2023-07-18T15:58:30.075Z,100466.00
2023-07-18T16:01:01.041Z,100465.56
2023-07-18T16:03:28.918Z,100448.63
2023-07-18T16:05:56.626Z,100452.56
2023-07-18T16:08:24.278Z,100447.06
2023-07-18T16:10:53.815Z,100440.34
2023-07-18T16:13:21.515Z,100425.91
2023-07-18T16:15:49.266Z,100425.38
2023-07-18T16:18:17.269Z,100411.16
2023-07-18T16:20:45.318Z,100411.00
2023-07-18T16:23:13.024Z,100400.28
2023-07-18T16:25:40.787Z,100404.75
2023-07-18T16:28:08.441Z,100409.31
2023-07-18T16:30:39.093Z,100404.66
2023-07-18T16:33:06.935Z,100405.13
2023-07-18T16:35:34.645Z,100404.19
2023-07-18T16:38:04.613Z,100406.13
2023-07-18T16:40:32.306Z,100408.41
2023-07-18T16:42:59.996Z,100405.34
2023-07-18T16:45:27.835Z,100399.47
2023-07-18T16:47:55.569Z,100392.59
2023-07-18T16:50:23.349Z,100395.53
2023-07-18T16:52:51.123Z,100384.72
2023-07-18T16:55:18.848Z,100385.34
2023-07-18T16:57:46.542Z,100385.25
2023-07-18T17:00:14.415Z,100383.13
2023-07-18T17:02:42.684Z,100383.94
2023-07-18T17:05:10.740Z,100381.44
2023-07-18T17:07:38.509Z,100372.63
2023-07-18T17:10:06.475Z,100371.94
2023-07-18T17:12:34.158Z,100372.63
2023-07-18T17:15:01.818Z,100372.41
2023-07-18T17:17:29.491Z,100364.06
2023-07-18T17:20:06.421Z,100359.94
2023-07-18T17:22:35.934Z,100357.34
2023-07-18T17:25:04.637Z,100339.66
2023-07-18T17:27:32.448Z,100334.09
2023-07-18T17:30:01.766Z,100336.09
2023-07-18T17:32:29.616Z,100333.31
2023-07-18T17:34:57.401Z,100328.66
2023-07-18T17:37:25.084Z,100324.44
2023-07-18T17:39:52.828Z,100320.63
2023-07-18T17:42:20.530Z,100320.63
2023-07-18T17:44:48.235Z,100311.69
2023-07-18T17:47:15.927Z,100305.81
2023-07-18T17:49:43.689Z,100312.94
2023-07-18T17:52:11.415Z,100309.94
2023-07-18T17:54:39.307Z,100308.25
2023-07-18T17:57:06.967Z,100299.38
2023-07-18T17:59:34.616Z,100306.13
2023-07-18T18:02:02.717Z,100308.25
2023-07-18T18:04:30.623Z,100302.97
2023-07-18T18:06:58.321Z,100307.41
2023-07-18T18:09:26.116Z,100299.84
2023-07-18T18:11:54.969Z,100297.72
2023-07-18T18:14:22.639Z,100310.41
2023-07-18T18:16:50.440Z,100312.53
2023-07-18T18:19:18.227Z,100302.13
2023-07-18T18:21:46.403Z,100299.84
2023-07-18T18:24:14.130Z,100302.13
2023-07-18T18:26:41.884Z,100298.56
2023-07-18T18:29:10.080Z,100302.34
2023-07-18T18:31:37.767Z,100302.13
2023-07-18T18:34:05.467Z,100308.72
2023-07-18T18:36:33.906Z,100304.28
2023-07-18T18:39:01.687Z,100300.88
2023-07-18T18:41:30.379Z,100305.53
2023-07-18T18:43:58.518Z,100306.19
2023-07-18T18:46:26.498Z,100310.88
2023-07-18T18:48:54.415Z,100316.81
2023-07-18T18:51:22.916Z,100317.66
2023-07-18T18:53:50.972Z,100317.66
2023-07-18T18:56:19.001Z,100318.47
2023-07-18T18:58:47.394Z,100314.06
2023-07-18T19:01:18.900Z,100314.28
2023-07-18T19:03:47.067Z,100319.56
2023-07-18T19:06:15.135Z,100315.94
2023-07-18T19:08:43.627Z,100314.28
2023-07-18T19:11:11.816Z,100314.50
2023-07-18T19:13:40.356Z,100318.94
2023-07-18T19:16:13.279Z,100322.75
2023-07-18T19:18:47.240Z,100324.44
2023-07-18T19:21:14.918Z,100324.91
2023-07-18T19:23:42.523Z,100327.88
2023-07-18T19:26:10.216Z,100330.44
2023-07-18T19:28:38.728Z,100331.72
2023-07-18T19:31:06.495Z,100335.31
2023-07-18T19:33:34.427Z,100337.44
2023-07-18T19:36:02.130Z,100336.38
2023-07-18T19:38:29.955Z,100333.03
2023-07-18T19:40:57.731Z,100334.31
2023-07-18T19:43:25.391Z,100333.25
2023-07-18T19:45:53.211Z,100332.41
2023-07-18T19:48:20.884Z,100329.88
2023-07-18T19:50:48.597Z,100333.50
2023-07-18T19:53:16.282Z,100322.91
2023-07-18T19:55:44.044Z,100324.00
2023-07-18T19:58:11.849Z,100325.09
2023-07-18T20:00:39.563Z,100328.69
2023-07-18T20:03:07.341Z,100325.31
2023-07-18T20:05:35.065Z,100327.22
2023-07-18T20:08:02.923Z,100332.72
2023-07-18T20:10:30.745Z,100328.28
2023-07-18T20:12:58.900Z,100329.97
2023-07-18T20:15:26.890Z,100325.53
2023-07-18T20:17:54.579Z,100324.47
2023-07-18T20:20:22.383Z,100323.38
2023-07-18T20:22:50.072Z,100322.56
2023-07-18T20:25:17.826Z,100319.59
2023-07-18T20:27:45.520Z,100325.31
2023-07-18T20:30:13.164Z,100329.97
2023-07-18T20:32:41.012Z,100324.94
2023-07-18T20:35:09.440Z,100335.94
2023-07-18T20:37:37.214Z,100334.03
2023-07-18T20:40:05.010Z,100340.38
2023-07-18T20:42:34.567Z,100344.19
2023-07-18T20:45:04.404Z,100345.88
2023-07-18T20:47:32.097Z,100346.94
2023-07-18T20:49:59.895Z,100349.72
2023-07-18T20:52:27.731Z,100343.34
2023-07-18T20:54:55.420Z,100347.16
2023-07-18T20:57:23.194Z,100340.00
2023-07-18T20:59:50.862Z,100340.84
2023-07-18T21:02:18.530Z,100336.38
2023-07-18T21:04:46.777Z,100343.81
2023-07-18T21:07:14.399Z,100335.78
2023-07-18T21:09:42.090Z,100337.47
2023-07-18T21:12:09.730Z,100336.84
2023-07-18T21:14:37.386Z,100335.78
2023-07-18T21:17:05.047Z,100337.69
2023-07-18T21:19:32.689Z,100329.06
2023-07-18T21:22:00.359Z,100335.16
2023-07-18T21:24:27.945Z,100333.72
2023-07-18T21:26:55.652Z,100326.50
2023-07-18T21:29:23.307Z,100332.25
2023-07-18T21:31:52.606Z,100319.34
2023-07-18T21:34:22.409Z,100322.09
2023-07-18T21:36:50.072Z,100322.94
2023-07-18T21:39:17.713Z,100326.50
2023-07-18T21:41:45.346Z,100323.56
2023-07-18T21:44:13.750Z,100326.38
2023-07-18T21:46:41.594Z,100323.84
2023-07-18T21:49:09.336Z,100319.44
2023-07-18T21:51:37.012Z,100324.69
2023-07-18T21:54:04.802Z,100316.44
2023-07-18T21:56:32.570Z,100321.09
2023-07-18T21:59:00.553Z,100312.84
2023-07-18T22:01:28.368Z,100315.38
2023-07-18T22:03:56.082Z,100307.56
2023-07-18T22:06:23.800Z,100308.66
2023-07-18T22:08:51.457Z,100308.66
2023-07-18T22:11:19.409Z,100307.56
2023-07-18T22:13:47.304Z,100306.72
2023-07-18T22:16:14.980Z,100305.91
2023-07-18T22:18:42.672Z,100301.22
2023-07-18T22:21:10.314Z,100296.81
2023-07-18T22:23:37.982Z,100295.09
2023-07-18T22:28:39.848Z,100296.66
2023-07-18T22:31:07.697Z,100292.00
2023-07-18T22:33:35.303Z,100285.25
2023-07-18T22:36:02.958Z,100286.94
2023-07-18T22:38:30.582Z,100283.13
2023-07-18T22:40:59.943Z,100286.69
2023-07-18T22:43:27.572Z,100286.94
2023-07-18T22:45:55.357Z,100275.13
2023-07-18T22:48:23.495Z,100281.44
2023-07-18T22:50:51.681Z,100283.59
2023-07-18T22:53:19.472Z,100280.00
2023-07-18T22:55:47.225Z,100276.63
2023-07-18T22:58:14.870Z,100277.72
2023-07-18T23:00:42.536Z,100276.00
2023-07-18T23:03:10.772Z,100270.50
2023-07-18T23:05:38.414Z,100270.50
2023-07-18T23:08:06.522Z,100272.63
2023-07-18T23:10:34.205Z,100272.63
2023-07-18T23:13:01.844Z,100272.63
2023-07-18T23:15:30.038Z,100276.47
2023-07-18T23:17:57.673Z,100270.31
2023-07-18T23:20:25.526Z,100266.38
2023-07-18T23:22:53.500Z,100261.69
2023-07-18T23:25:21.186Z,100253.19
2023-07-18T23:27:48.868Z,100267.56
2023-07-18T23:30:16.528Z,100264.19
2023-07-18T23:32:44.281Z,100256.41
2023-07-18T23:35:11.915Z,100254.13
2023-07-18T23:37:39.751Z,100255.81
2023-07-18T23:40:07.389Z,100253.66
2023-07-18T23:42:35.089Z,100254.97
2023-07-18T23:45:02.852Z,100253.28
2023-07-18T23:47:30.514Z,100254.13
2023-07-18T23:49:58.198Z,100251.00
2023-07-18T23:52:25.866Z,100248.63
2023-07-18T23:54:53.837Z,100248.25
2023-07-18T23:57:21.461Z,100243.59
2023-07-18T23:59:49.129Z,100244.66
